createdAt,value
2017-11-10T00:00:39.173Z,33.60
2017-11-10T00:01:39.155Z,35.10
2017-11-10T00:02:39.138Z,32.10
2017-11-10T00:03:39.129Z,32.00
2017-11-10T00:04:39.097Z,32.90
2017-11-10T00:05:39.083Z,30.90
2017-11-10T00:06:39.064Z,32.40
2017-11-10T00:07:39.044Z,33.50
2017-11-10T00:08:39.031Z,33.20
2017-11-10T00:09:39.005Z,32.60
2017-11-10T00:10:38.991Z,31.10
2017-11-10T00:11:38.967Z,31.00
2017-11-10T00:12:38.949Z,30.80
2017-11-10T00:13:38.930Z,31.50
2017-11-10T00:14:38.912Z,30.50
2017-11-10T00:15:38.894Z,32.10
2017-11-10T00:16:38.885Z,31.40
2017-11-10T00:17:38.863Z,30.60
2017-11-10T00:18:38.838Z,29.90
2017-11-10T00:19:38.831Z,29.00
2017-11-10T00:20:38.799Z,30.10
2017-11-10T00:21:38.783Z,29.30
2017-11-10T00:22:38.764Z,29.40
2017-11-10T00:23:38.744Z,27.90
2017-11-10T00:24:38.730Z,27.90
2017-11-10T00:25:38.715Z,28.80
2017-11-10T00:26:38.691Z,28.80
2017-11-10T00:27:38.772Z,28.60
2017-11-10T00:28:38.648Z,27.50
2017-11-10T00:29:38.633Z,27.20
2017-11-10T00:30:38.615Z,28.10
2017-11-10T00:31:38.596Z,27.40
2017-11-10T00:32:38.573Z,26.80
2017-11-10T00:33:38.661Z,27.80
2017-11-10T00:34:38.533Z,28.20
2017-11-10T00:35:38.511Z,27.60
2017-11-10T00:36:38.495Z,28.30
2017-11-10T00:37:38.474Z,27.00
2017-11-10T00:38:38.484Z,27.70
2017-11-10T00:39:38.450Z,27.40
2017-11-10T00:40:38.421Z,26.40
2017-11-10T00:41:38.398Z,27.20
2017-11-10T00:42:38.384Z,27.10
2017-11-10T00:43:38.365Z,27.00
2017-11-10T00:44:40.932Z,28.00
2017-11-10T00:45:38.331Z,29.00
2017-11-10T00:46:38.324Z,27.60
2017-11-10T00:47:38.290Z,28.60
2017-11-10T00:48:38.277Z,28.30
2017-11-10T00:49:38.255Z,28.20
2017-11-10T00:50:38.236Z,27.70
2017-11-10T00:51:38.221Z,27.60
2017-11-10T00:52:38.204Z,27.70
2017-11-10T00:53:38.185Z,28.60
2017-11-10T00:54:38.172Z,28.40
2017-11-10T00:55:38.152Z,27.60
2017-11-10T00:56:38.125Z,27.40
2017-11-10T00:57:38.149Z,27.10
2017-11-10T00:58:38.113Z,28.80
2017-11-10T00:59:38.080Z,26.80
2017-11-10T01:00:38.059Z,27.50
2017-11-10T01:01:38.181Z,28.50
2017-11-10T01:02:38.022Z,28.00
2017-11-10T01:03:38.001Z,28.70
2017-11-10T01:04:37.980Z,29.20
2017-11-10T01:05:37.957Z,27.70
2017-11-10T01:06:37.943Z,29.40
2017-11-10T01:07:37.919Z,26.70
2017-11-10T01:08:37.915Z,28.80
2017-11-10T01:09:37.889Z,28.90
2017-11-10T01:10:37.864Z,28.50
2017-11-10T01:11:37.849Z,27.80
2017-11-10T01:12:37.830Z,30.40
2017-11-10T01:13:37.813Z,31.20
2017-11-10T01:14:37.791Z,29.70
2017-11-10T01:15:37.777Z,30.80
2017-11-10T01:16:37.756Z,30.80
2017-11-10T01:17:37.738Z,30.80
2017-11-10T01:18:37.717Z,31.40
2017-11-10T01:19:37.706Z,30.00
2017-11-10T01:20:37.681Z,31.40
2017-11-10T01:21:37.682Z,31.60
2017-11-10T01:22:37.642Z,32.30
2017-11-10T01:23:37.627Z,31.90
2017-11-10T01:24:37.606Z,31.50
2017-11-10T01:25:37.589Z,31.80
2017-11-10T01:26:37.565Z,33.50
2017-11-10T01:27:37.637Z,33.90
2017-11-10T01:28:37.531Z,33.20
2017-11-10T01:29:37.515Z,34.70
2017-11-10T01:30:37.493Z,35.80
2017-11-10T01:31:37.478Z,38.00
2017-11-10T01:32:37.457Z,35.60
2017-11-10T01:33:37.437Z,38.30
2017-11-10T01:34:37.415Z,40.20
2017-11-10T01:35:37.405Z,39.50
2017-11-10T01:36:37.383Z,40.90
2017-11-10T01:37:37.364Z,41.80
2017-11-10T01:38:37.349Z,40.50
2017-11-10T01:39:37.334Z,41.80
2017-11-10T01:40:37.331Z,43.50
2017-11-10T01:41:37.290Z,41.10
2017-11-10T01:42:37.271Z,43.10
2017-11-10T01:43:37.266Z,43.80
2017-11-10T01:44:37.243Z,44.30
2017-11-10T01:45:37.222Z,44.20
2017-11-10T01:46:37.193Z,44.20
2017-11-10T01:47:37.184Z,43.60
2017-11-10T01:48:37.300Z,43.20
2017-11-10T01:49:37.144Z,44.30
2017-11-10T01:50:37.122Z,44.20
2017-11-10T01:51:37.105Z,44.10
2017-11-10T01:52:37.088Z,42.90
2017-11-10T01:53:37.062Z,44.20
2017-11-10T01:54:37.046Z,45.00
2017-11-10T01:55:37.032Z,45.10
2017-11-10T01:56:37.012Z,44.40
2017-11-10T01:57:36.998Z,42.00
2017-11-10T01:58:36.976Z,42.80
2017-11-10T01:59:36.959Z,41.70
2017-11-10T02:00:36.937Z,43.30
2017-11-10T02:01:36.933Z,42.60
2017-11-10T02:02:36.895Z,42.80
2017-11-10T02:03:36.883Z,44.60
2017-11-10T02:04:36.861Z,43.20
2017-11-10T02:05:36.848Z,44.00
2017-11-10T02:06:36.827Z,41.70
2017-11-10T02:07:36.810Z,41.20
2017-11-10T02:08:36.793Z,41.90
2017-11-10T02:09:36.768Z,42.80
2017-11-10T02:10:36.762Z,40.60
2017-11-10T02:11:36.738Z,41.80
2017-11-10T02:12:36.713Z,43.20
2017-11-10T02:13:36.697Z,43.30
2017-11-10T02:14:36.677Z,42.50
2017-11-10T02:15:36.659Z,41.20
2017-11-10T02:16:36.638Z,41.20
2017-11-10T02:17:36.624Z,39.50
2017-11-10T02:18:36.604Z,41.00
2017-11-10T02:19:36.585Z,41.50
2017-11-10T02:20:36.566Z,42.00
2017-11-10T02:21:36.552Z,41.30
2017-11-10T02:22:36.530Z,40.90
2017-11-10T02:23:36.509Z,41.90
2017-11-10T02:24:36.492Z,40.30
2017-11-10T02:25:36.473Z,42.80
2017-11-10T02:26:36.448Z,43.40
2017-11-10T02:27:36.446Z,42.60
2017-11-10T02:28:36.415Z,43.20
2017-11-10T02:29:36.402Z,42.40
2017-11-10T02:30:36.375Z,42.90
2017-11-10T02:31:36.359Z,42.60
2017-11-10T02:32:36.349Z,42.60
2017-11-10T02:33:36.349Z,43.00
2017-11-10T02:34:36.316Z,43.70
2017-11-10T02:35:36.285Z,45.20
2017-11-10T02:36:36.279Z,47.50
2017-11-10T02:37:36.250Z,45.40
2017-11-10T02:38:36.241Z,45.40
2017-11-10T02:39:36.215Z,46.20
2017-11-10T02:40:36.192Z,44.60
2017-11-10T02:41:36.179Z,45.70
2017-11-10T02:42:36.158Z,47.50
2017-11-10T02:43:36.134Z,48.90
2017-11-10T02:44:36.118Z,46.70
2017-11-10T02:45:36.101Z,48.90
2017-11-10T02:46:36.077Z,46.80
2017-11-10T02:47:36.059Z,48.60
2017-11-10T02:48:36.045Z,48.00
2017-11-10T02:49:36.027Z,47.80
2017-11-10T02:50:36.008Z,49.30
2017-11-10T02:51:35.991Z,49.00
2017-11-10T02:52:35.971Z,48.50
2017-11-10T02:53:35.949Z,49.50
2017-11-10T02:54:35.934Z,48.70
2017-11-10T02:55:35.917Z,49.20
2017-11-10T02:56:35.896Z,48.80
2017-11-10T02:57:35.894Z,50.70
2017-11-10T02:58:35.862Z,49.00
2017-11-10T02:59:35.838Z,50.50
2017-11-10T03:00:35.823Z,52.30
2017-11-10T03:01:35.805Z,49.20
2017-11-10T03:02:35.786Z,49.40
2017-11-10T03:03:35.767Z,49.40
2017-11-10T03:04:35.747Z,50.20
2017-11-10T03:05:35.728Z,50.20
2017-11-10T03:06:35.704Z,50.60
2017-11-10T03:07:35.694Z,51.30
2017-11-10T03:08:35.673Z,52.00
2017-11-10T03:09:35.654Z,52.00
2017-11-10T03:10:35.633Z,52.40
2017-11-10T03:11:35.623Z,52.40
2017-11-10T03:12:35.598Z,52.00
2017-11-10T03:13:35.578Z,52.30
2017-11-10T03:14:35.567Z,53.30
2017-11-10T03:15:35.553Z,53.80
2017-11-10T03:16:35.522Z,53.90
2017-11-10T03:17:35.501Z,54.60
2017-11-10T03:18:35.490Z,54.40
2017-11-10T03:19:35.470Z,54.50
2017-11-10T03:20:35.446Z,54.50
2017-11-10T03:21:35.432Z,56.30
2017-11-10T03:22:35.412Z,54.20
2017-11-10T03:23:35.392Z,55.90
2017-11-10T03:24:35.372Z,55.40
2017-11-10T03:25:35.365Z,55.40
2017-11-10T03:26:35.338Z,55.90
2017-11-10T03:27:35.379Z,56.00
2017-11-10T03:28:35.305Z,54.40
2017-11-10T03:29:35.280Z,55.00
2017-11-10T03:30:35.268Z,56.50
2017-11-10T03:31:35.245Z,56.50
2017-11-10T03:32:35.225Z,58.20
2017-11-10T03:33:35.207Z,56.20
2017-11-10T03:34:35.188Z,57.80
2017-11-10T03:35:35.169Z,55.50
2017-11-10T03:36:35.151Z,55.90
2017-11-10T03:37:35.132Z,56.30
2017-11-10T03:38:35.112Z,57.00
2017-11-10T03:39:35.103Z,54.00
2017-11-10T03:40:35.080Z,57.00
2017-11-10T03:41:35.063Z,57.00
2017-11-10T03:42:35.041Z,57.00
2017-11-10T03:43:35.023Z,56.90
2017-11-10T03:44:35.002Z,58.20
2017-11-10T03:45:34.983Z,55.70
2017-11-10T03:46:34.969Z,57.00
2017-11-10T03:47:34.941Z,56.50
2017-11-10T03:48:34.928Z,56.40
2017-11-10T03:49:34.910Z,53.90
2017-11-10T03:50:34.891Z,55.80
2017-11-10T03:51:34.874Z,55.60
2017-11-10T03:52:34.855Z,57.30
2017-11-10T03:53:34.837Z,58.00
2017-11-10T03:54:34.818Z,57.60
2017-11-10T03:55:34.793Z,58.00
2017-11-10T03:56:34.780Z,59.90
2017-11-10T03:57:34.766Z,57.70
2017-11-10T03:58:34.742Z,55.90
2017-11-10T03:59:34.724Z,57.20
2017-11-10T04:00:34.706Z,58.90
2017-11-10T04:01:34.686Z,58.30
2017-11-10T04:02:34.661Z,59.00
2017-11-10T04:03:34.652Z,58.10
2017-11-10T04:04:34.641Z,56.90
2017-11-10T04:05:34.623Z,56.50
2017-11-10T04:06:34.597Z,56.40
2017-11-10T04:07:34.581Z,57.60
2017-11-10T04:08:34.561Z,57.00
2017-11-10T04:09:34.534Z,56.40
2017-11-10T04:10:34.521Z,56.20
2017-11-10T04:11:34.518Z,62.50
2017-11-10T04:12:34.483Z,61.80
2017-11-10T04:13:34.469Z,57.60
2017-11-10T04:14:34.446Z,56.50
2017-11-10T04:15:34.427Z,61.10
2017-11-10T04:16:34.409Z,64.70
2017-11-10T04:17:34.389Z,68.20
2017-11-10T04:18:34.371Z,64.50
2017-11-10T04:19:34.356Z,61.70
2017-11-10T04:20:34.336Z,57.00
2017-11-10T04:21:34.316Z,58.60
2017-11-10T04:22:34.319Z,55.10
2017-11-10T04:23:34.282Z,56.50
2017-11-10T04:24:34.262Z,56.40
2017-11-10T04:25:34.241Z,54.50
2017-11-10T04:26:34.223Z,55.70
2017-11-10T04:27:34.209Z,52.90
2017-11-10T04:28:34.186Z,56.30
2017-11-10T04:29:34.170Z,55.00
2017-11-10T04:30:34.151Z,55.20
2017-11-10T04:31:34.143Z,55.70
2017-11-10T04:32:34.116Z,55.00
2017-11-10T04:33:34.095Z,53.80
2017-11-10T04:34:34.081Z,56.70
2017-11-10T04:35:34.062Z,54.20
2017-11-10T04:36:34.039Z,55.10
2017-11-10T04:37:34.021Z,56.50
2017-11-10T04:38:34.008Z,56.30
2017-11-10T04:39:33.999Z,56.50
2017-11-10T04:40:33.966Z,55.80
2017-11-10T04:41:33.950Z,54.00
2017-11-10T04:42:33.931Z,55.00
2017-11-10T04:43:33.915Z,54.00
2017-11-10T04:44:33.917Z,54.90
2017-11-10T04:45:33.887Z,58.40
2017-11-10T04:46:33.855Z,56.30
2017-11-10T04:47:33.838Z,59.30
2017-11-10T04:48:33.819Z,58.10
2017-11-10T04:49:33.806Z,57.50
2017-11-10T04:50:33.790Z,55.70
2017-11-10T04:51:33.761Z,55.70
2017-11-10T04:52:33.759Z,56.10
2017-11-10T04:53:33.724Z,57.00
2017-11-10T04:54:33.707Z,58.90
2017-11-10T04:55:33.691Z,58.90
2017-11-10T04:56:33.704Z,57.50
2017-11-10T04:57:33.656Z,56.70
2017-11-10T04:58:33.633Z,57.90
2017-11-10T04:59:33.617Z,57.70
2017-11-10T05:00:33.595Z,58.70
2017-11-10T05:01:33.577Z,57.90
2017-11-10T05:02:33.558Z,55.80
2017-11-10T05:03:33.543Z,58.10
2017-11-10T05:04:33.525Z,55.70
2017-11-10T05:05:33.511Z,56.90
2017-11-10T05:06:33.485Z,59.30
2017-11-10T05:07:33.474Z,59.60
2017-11-10T05:08:33.444Z,56.30
2017-11-10T05:09:33.432Z,57.70
2017-11-10T05:10:33.412Z,59.70
2017-11-10T05:11:33.399Z,56.70
2017-11-10T05:12:33.384Z,58.20
2017-11-10T05:13:33.365Z,54.50
2017-11-10T05:14:33.346Z,57.00
2017-11-10T05:15:33.327Z,56.60
2017-11-10T05:16:33.323Z,56.90
2017-11-10T05:17:33.308Z,59.20
2017-11-10T05:18:33.282Z,59.70
2017-11-10T05:19:33.267Z,59.40
2017-11-10T05:20:33.235Z,55.80
2017-11-10T05:21:33.237Z,59.30
2017-11-10T05:22:33.196Z,57.30
2017-11-10T05:23:33.179Z,59.20
2017-11-10T05:24:33.181Z,55.70
2017-11-10T05:25:33.137Z,57.60
2017-11-10T05:26:33.129Z,57.10
2017-11-10T05:27:33.145Z,57.90
2017-11-10T05:28:33.144Z,56.30
2017-11-10T05:29:33.143Z,57.50
2017-11-10T05:30:33.045Z,55.70
2017-11-10T05:31:33.036Z,56.50
2017-11-10T05:32:33.014Z,56.60
2017-11-10T05:33:33.007Z,56.60
2017-11-10T05:34:33.009Z,57.30
2017-11-10T05:35:32.957Z,57.30
2017-11-10T05:36:32.955Z,58.80
2017-11-10T05:37:32.928Z,60.70
2017-11-10T05:38:32.902Z,61.30
2017-11-10T05:39:32.881Z,60.30
2017-11-10T05:40:32.872Z,57.20
2017-11-10T05:41:32.863Z,58.20
2017-11-10T05:42:32.832Z,55.10
2017-11-10T05:43:32.837Z,60.50
2017-11-10T05:44:32.800Z,59.00
2017-11-10T05:45:32.809Z,57.20
2017-11-10T05:46:32.769Z,60.10
2017-11-10T05:47:32.747Z,60.90
2017-11-10T05:48:32.731Z,59.20
2017-11-10T05:49:32.732Z,58.50
2017-11-10T05:50:32.700Z,60.50
2017-11-10T05:51:32.665Z,60.70
2017-11-10T05:52:32.676Z,60.30
2017-11-10T05:53:32.627Z,60.50
2017-11-10T05:54:32.655Z,61.80
2017-11-10T05:55:32.661Z,58.90
2017-11-10T05:56:32.583Z,60.10
2017-11-10T05:57:32.599Z,58.90
2017-11-10T05:58:32.545Z,59.00
2017-11-10T05:59:32.541Z,59.40
2017-11-10T06:00:32.508Z,59.20
2017-11-10T06:01:32.491Z,57.90
2017-11-10T06:02:32.496Z,60.40
2017-11-10T06:03:32.445Z,59.10
2017-11-10T06:04:32.433Z,57.80
2017-11-10T06:05:32.417Z,56.90
2017-11-10T06:06:32.392Z,58.80
2017-11-10T06:07:32.391Z,59.00
2017-11-10T06:08:32.385Z,59.90
2017-11-10T06:09:32.342Z,60.10
2017-11-10T06:10:32.368Z,59.60
2017-11-10T06:11:32.304Z,61.10
2017-11-10T06:12:32.323Z,58.20
2017-11-10T06:13:32.278Z,57.30
2017-11-10T06:14:32.269Z,58.30
2017-11-10T06:15:32.244Z,56.60
2017-11-10T06:16:32.229Z,58.20
2017-11-10T06:17:32.197Z,57.20
2017-11-10T06:18:32.182Z,57.30
2017-11-10T06:19:32.187Z,59.40
2017-11-10T06:20:32.144Z,57.90
2017-11-10T06:21:32.133Z,62.10
2017-11-10T06:22:32.104Z,61.60
2017-11-10T06:23:32.085Z,59.10
2017-11-10T06:24:32.088Z,57.80
2017-11-10T06:25:32.143Z,59.40
2017-11-10T06:26:32.078Z,59.40
2017-11-10T06:27:32.051Z,57.50
2017-11-10T06:28:32.004Z,60.60
2017-11-10T06:29:31.973Z,59.90
2017-11-10T06:30:32.018Z,59.60
2017-11-10T06:31:31.954Z,60.80
2017-11-10T06:32:31.927Z,60.70
2017-11-10T06:33:31.913Z,60.10
2017-11-10T06:34:31.919Z,61.40
2017-11-10T06:35:31.874Z,59.60
2017-11-10T06:36:31.854Z,59.70
2017-11-10T06:37:31.900Z,61.30
2017-11-10T06:38:31.822Z,58.50
2017-11-10T06:39:31.807Z,61.40
2017-11-10T06:40:31.793Z,58.90
2017-11-10T06:41:31.773Z,61.10
2017-11-10T06:42:31.758Z,60.80
2017-11-10T06:43:31.719Z,62.00
2017-11-10T06:44:31.709Z,60.80
2017-11-10T06:45:31.714Z,63.20
2017-11-10T06:46:31.688Z,60.70
2017-11-10T06:47:31.657Z,62.10
2017-11-10T06:48:31.640Z,61.00
2017-11-10T06:49:31.625Z,62.70
2017-11-10T06:50:31.615Z,62.90
2017-11-10T06:51:31.585Z,62.60
2017-11-10T06:52:31.577Z,65.00
2017-11-10T06:53:31.570Z,63.20
2017-11-10T06:54:31.550Z,62.70
2017-11-10T06:55:31.529Z,63.70
2017-11-10T06:56:31.513Z,62.90
2017-11-10T06:57:31.514Z,63.30
2017-11-10T06:58:31.464Z,59.70
2017-11-10T06:59:31.477Z,59.00
2017-11-10T07:00:31.434Z,61.70
2017-11-10T07:01:31.448Z,60.30
2017-11-10T07:02:31.388Z,61.50
2017-11-10T07:03:31.403Z,60.20
2017-11-10T07:04:31.341Z,61.90
2017-11-10T07:05:31.464Z,60.40
2017-11-10T07:06:31.308Z,64.70
2017-11-10T07:07:31.304Z,63.50
2017-11-10T07:08:31.269Z,61.30
2017-11-10T07:09:31.271Z,61.30
2017-11-10T07:10:31.234Z,62.60
2017-11-10T07:11:31.229Z,59.00
2017-11-10T07:12:31.204Z,59.00
2017-11-10T07:13:31.217Z,58.70
2017-11-10T07:14:31.200Z,58.30
2017-11-10T07:15:31.159Z,61.20
2017-11-10T07:16:31.138Z,59.40
2017-11-10T07:17:31.124Z,57.60
2017-11-10T07:18:32.076Z,57.50
2017-11-10T07:19:31.124Z,60.20
2017-11-10T07:20:31.104Z,59.40
2017-11-10T07:21:31.059Z,59.60
2017-11-10T07:22:31.072Z,59.60
2017-11-10T07:23:31.001Z,58.30
2017-11-10T07:24:30.986Z,58.30
2017-11-10T07:25:30.981Z,57.50
2017-11-10T07:26:30.952Z,54.50
2017-11-10T07:27:30.935Z,56.80
2017-11-10T07:28:30.934Z,57.90
2017-11-10T07:29:30.894Z,55.80
2017-11-10T07:30:30.895Z,58.00
2017-11-10T07:31:30.867Z,55.80
2017-11-10T07:32:30.837Z,55.90
2017-11-10T07:33:30.844Z,57.10
2017-11-10T07:34:30.805Z,54.10
2017-11-10T07:35:30.808Z,55.20
2017-11-10T07:36:30.780Z,54.80
2017-11-10T07:37:30.749Z,55.00
2017-11-10T07:38:30.736Z,55.40
2017-11-10T07:39:30.733Z,50.80
2017-11-10T07:40:30.716Z,53.60
2017-11-10T07:41:30.696Z,53.90
2017-11-10T07:42:30.664Z,54.90
2017-11-10T07:43:30.666Z,57.10
2017-11-10T07:44:30.661Z,56.30
2017-11-10T07:45:30.621Z,56.50
2017-11-10T07:46:30.604Z,55.80
2017-11-10T07:47:30.590Z,52.20
2017-11-10T07:48:30.570Z,54.60
2017-11-10T07:49:30.535Z,56.60
2017-11-10T07:50:30.531Z,56.20
2017-11-10T07:51:30.512Z,56.00
2017-11-10T07:52:30.501Z,56.00
2017-11-10T07:53:30.471Z,57.90
2017-11-10T07:54:30.442Z,56.10
2017-11-10T07:55:30.430Z,55.00
2017-11-10T07:56:30.420Z,55.20
2017-11-10T07:57:30.476Z,54.90
2017-11-10T07:58:30.371Z,53.00
2017-11-10T07:59:30.365Z,53.90
2017-11-10T08:00:30.370Z,52.60
2017-11-10T08:01:30.317Z,53.70
2017-11-10T08:02:30.307Z,52.10
2017-11-10T08:03:30.290Z,53.90
2017-11-10T08:04:30.269Z,51.70
2017-11-10T08:05:30.252Z,52.30
2017-11-10T08:06:30.250Z,51.60
2017-11-10T08:07:30.209Z,52.00
2017-11-10T08:08:30.207Z,51.80
2017-11-10T08:09:30.180Z,48.90
2017-11-10T08:10:30.156Z,51.00
2017-11-10T08:11:30.141Z,50.30
2017-11-10T08:12:30.156Z,49.20
2017-11-10T08:13:30.122Z,48.80
2017-11-10T08:14:30.082Z,48.30
2017-11-10T08:15:30.149Z,47.50
2017-11-10T08:16:30.081Z,48.20
2017-11-10T08:17:30.072Z,45.90
2017-11-10T08:18:30.116Z,46.90
2017-11-10T08:19:30.057Z,49.10
2017-11-10T08:20:30.063Z,46.50
2017-11-10T08:21:29.964Z,47.30
2017-11-10T08:22:29.937Z,48.80
2017-11-10T08:23:29.993Z,47.00
2017-11-10T08:24:29.940Z,44.50
2017-11-10T08:25:29.892Z,43.70
2017-11-10T08:26:29.898Z,46.50
2017-11-10T08:27:29.877Z,46.00
2017-11-10T08:28:29.877Z,48.00
2017-11-10T08:29:29.837Z,44.50
2017-11-10T08:30:29.809Z,45.70
2017-11-10T08:31:29.795Z,45.20
2017-11-10T08:32:29.767Z,45.50
2017-11-10T08:33:29.754Z,47.50
2017-11-10T08:34:29.766Z,44.30
2017-11-10T08:35:29.715Z,47.50
2017-11-10T08:36:29.711Z,47.30
2017-11-10T08:37:29.740Z,44.00
2017-11-10T08:38:29.668Z,44.80
2017-11-10T08:39:29.756Z,44.80
2017-11-10T08:40:29.630Z,44.30
2017-11-10T08:41:29.717Z,44.40
2017-11-10T08:42:29.818Z,46.40
2017-11-10T08:43:29.575Z,46.50
2017-11-10T08:44:29.643Z,47.10
2017-11-10T08:45:29.563Z,46.40
2017-11-10T08:46:29.513Z,44.70
2017-11-10T08:47:29.552Z,45.40
2017-11-10T08:48:29.595Z,44.80
2017-11-10T08:49:29.497Z,42.90
2017-11-10T08:50:29.481Z,42.90
2017-11-10T08:51:29.459Z,44.40
2017-11-10T08:52:29.473Z,44.80
2017-11-10T08:53:29.983Z,44.50
2017-11-10T08:54:29.388Z,43.60
2017-11-10T08:55:29.484Z,43.10
2017-11-10T08:56:29.445Z,42.10
2017-11-10T08:57:29.328Z,41.80
2017-11-10T08:58:29.415Z,43.40
2017-11-10T08:59:29.353Z,43.30
2017-11-10T09:00:29.259Z,43.30
2017-11-10T09:01:29.309Z,42.90
2017-11-10T09:02:29.337Z,42.20
2017-11-10T09:03:29.239Z,43.30
2017-11-10T09:04:29.274Z,40.20
2017-11-10T09:05:29.255Z,40.30
2017-11-10T09:06:30.040Z,39.10
2017-11-10T09:07:29.134Z,39.30
2017-11-10T09:08:29.220Z,39.30
2017-11-10T09:09:30.026Z,36.90
2017-11-10T09:10:29.121Z,37.80
2017-11-10T09:11:29.104Z,35.30
2017-11-10T09:12:29.115Z,36.50
2017-11-10T09:13:29.151Z,37.20
2017-11-10T09:14:29.068Z,37.50
2017-11-10T09:15:29.124Z,39.20
2017-11-10T09:16:29.080Z,37.80
2017-11-10T09:17:29.052Z,36.20
2017-11-10T09:18:28.994Z,36.40
2017-11-10T09:19:28.978Z,38.00
2017-11-10T09:20:29.076Z,38.10
2017-11-10T09:21:28.985Z,36.20
2017-11-10T09:22:28.914Z,38.10
2017-11-10T09:23:28.916Z,39.00
2017-11-10T09:24:28.912Z,36.50
2017-11-10T09:25:28.963Z,35.80
2017-11-10T09:26:28.893Z,35.10
2017-11-10T09:27:28.897Z,33.70
2017-11-10T09:28:28.800Z,34.00
2017-11-10T09:29:28.817Z,31.10
2017-11-10T09:30:28.820Z,31.10
2017-11-10T09:31:28.787Z,31.50
2017-11-10T09:32:28.764Z,29.60
2017-11-10T09:33:28.738Z,31.10
2017-11-10T09:34:29.532Z,31.60
2017-11-10T09:35:28.685Z,33.30
2017-11-10T09:36:28.645Z,31.50
2017-11-10T09:37:28.649Z,31.60
2017-11-10T09:38:28.651Z,29.20
2017-11-10T09:39:28.616Z,31.00
2017-11-10T09:40:28.553Z,30.40
2017-11-10T09:41:28.608Z,28.90
2017-11-10T09:42:28.557Z,29.10
2017-11-10T09:43:28.531Z,27.30
2017-11-10T09:44:28.508Z,28.50
2017-11-10T09:45:28.539Z,27.70
2017-11-10T09:46:28.483Z,28.50
2017-11-10T09:47:28.476Z,28.50
2017-11-10T09:48:28.440Z,28.10
2017-11-10T09:49:28.546Z,29.80
2017-11-10T09:50:28.426Z,28.30
2017-11-10T09:51:28.428Z,29.50
2017-11-10T09:52:28.373Z,29.20
2017-11-10T09:53:28.372Z,28.60
2017-11-10T09:54:28.330Z,27.80
2017-11-10T09:55:28.397Z,30.40
2017-11-10T09:56:28.282Z,29.60
2017-11-10T09:57:29.038Z,30.60
2017-11-10T09:58:28.349Z,32.50
2017-11-10T09:59:28.305Z,31.30
2017-11-10T10:00:28.229Z,30.80
2017-11-10T10:01:28.300Z,35.30
2017-11-10T10:02:28.344Z,35.60
2017-11-10T10:03:28.216Z,33.80
2017-11-10T10:04:28.391Z,40.80
2017-11-10T10:05:28.159Z,31.50
2017-11-10T10:06:28.286Z,34.30
2017-11-10T10:07:28.144Z,33.20
2017-11-10T10:08:28.094Z,38.90
2017-11-10T10:09:28.166Z,42.60
2017-11-10T10:10:28.123Z,43.50
2017-11-10T10:11:28.068Z,40.70
2017-11-10T10:12:28.044Z,39.40
2017-11-10T10:13:28.102Z,39.20
2017-11-10T10:14:27.993Z,41.20
2017-11-10T10:15:27.995Z,37.70
2017-11-10T10:16:27.994Z,37.70
2017-11-10T10:17:28.026Z,36.10
2017-11-10T10:18:27.953Z,35.30
2017-11-10T10:19:27.969Z,38.40
2017-11-10T10:20:27.980Z,37.00
2017-11-10T10:21:27.913Z,38.00
2017-11-10T10:22:27.830Z,35.20
2017-11-10T10:23:27.878Z,36.10
2017-11-10T10:24:28.540Z,36.50
2017-11-10T10:25:27.850Z,35.80
2017-11-10T10:26:27.829Z,36.10
2017-11-10T10:27:27.764Z,36.90
2017-11-10T10:28:27.791Z,36.90
2017-11-10T10:29:27.790Z,36.60
2017-11-10T10:30:27.758Z,35.90
2017-11-10T10:31:27.723Z,35.40
2017-11-10T10:32:27.791Z,34.10
2017-11-10T10:33:28.656Z,36.30
2017-11-10T10:34:27.639Z,35.50
2017-11-10T10:35:27.651Z,36.20
2017-11-10T10:36:27.683Z,35.60
2017-11-10T10:37:27.661Z,35.40
2017-11-10T10:38:27.598Z,33.70
2017-11-10T10:39:27.618Z,34.80
2017-11-10T10:40:27.560Z,36.10
2017-11-10T10:41:27.628Z,35.30
2017-11-10T10:42:27.483Z,34.20
2017-11-10T10:43:27.503Z,35.10
2017-11-10T10:44:27.515Z,36.80
2017-11-10T10:45:27.516Z,35.80
2017-11-10T10:46:27.519Z,37.20
2017-11-10T10:47:28.026Z,36.00
2017-11-10T10:48:27.368Z,35.80
2017-11-10T10:49:27.425Z,36.10
2017-11-10T10:50:27.362Z,35.50
2017-11-10T10:51:27.333Z,34.20
2017-11-10T10:52:27.316Z,34.60
2017-11-10T10:53:27.283Z,35.20
2017-11-10T10:54:27.307Z,34.40
2017-11-10T10:55:27.242Z,33.10
2017-11-10T10:56:27.257Z,35.50
2017-11-10T10:57:27.299Z,36.00
2017-11-10T10:58:27.273Z,35.50
2017-11-10T10:59:27.185Z,34.10
2017-11-10T11:00:27.213Z,34.20
2017-11-10T11:01:27.179Z,34.30
2017-11-10T11:02:27.275Z,35.10
2017-11-10T11:03:27.192Z,35.00
2017-11-10T11:04:27.173Z,36.60
2017-11-10T11:05:27.122Z,36.30
2017-11-10T11:06:27.122Z,37.70
2017-11-10T11:07:27.138Z,35.60
2017-11-10T11:08:27.081Z,37.20
2017-11-10T11:09:26.979Z,38.10
2017-11-10T11:10:26.964Z,35.90
2017-11-10T11:11:26.998Z,38.90
2017-11-10T11:12:27.108Z,38.10
2017-11-10T11:13:27.005Z,39.80
2017-11-10T11:14:26.981Z,36.90
2017-11-10T11:15:26.980Z,36.90
2017-11-10T11:16:26.944Z,37.70
2017-11-10T11:17:26.937Z,38.90
2017-11-10T11:18:26.899Z,38.10
2017-11-10T11:19:26.851Z,39.90
2017-11-10T11:20:26.878Z,40.20
2017-11-10T11:21:26.775Z,37.70
2017-11-10T11:22:26.794Z,38.90
2017-11-10T11:23:26.776Z,40.40
2017-11-10T11:24:26.744Z,38.90
2017-11-10T11:25:26.783Z,39.60
2017-11-10T11:26:26.686Z,40.10
2017-11-10T11:27:26.762Z,39.60
2017-11-10T11:28:27.549Z,39.40
2017-11-10T11:29:27.692Z,40.60
2017-11-10T11:30:28.723Z,39.70
2017-11-10T11:31:26.662Z,39.70
2017-11-10T11:32:26.704Z,41.10
2017-11-10T11:33:26.635Z,39.80
2017-11-10T11:34:26.621Z,38.50
2017-11-10T11:35:26.588Z,41.00
2017-11-10T11:36:26.614Z,39.50
2017-11-10T11:37:26.616Z,40.60
2017-11-10T11:38:27.568Z,39.90
2017-11-10T11:40:26.526Z,40.90
2017-11-10T11:41:26.495Z,40.90
2017-11-10T11:42:26.519Z,40.30
2017-11-10T11:43:26.473Z,39.80
2017-11-10T11:44:26.439Z,39.30
2017-11-10T11:45:26.442Z,37.80
2017-11-10T11:46:26.481Z,39.00
2017-11-10T11:47:27.201Z,38.10
2017-11-10T11:48:27.072Z,38.90
2017-11-10T11:49:26.299Z,39.50
2017-11-10T11:50:26.357Z,38.50
2017-11-10T11:51:26.315Z,39.30
2017-11-10T11:52:26.400Z,38.10
2017-11-10T11:53:26.317Z,37.50
2017-11-10T11:54:26.241Z,39.40
2017-11-10T11:55:26.204Z,39.80
2017-11-10T11:56:26.230Z,40.30
2017-11-10T11:57:26.269Z,41.00
2017-11-10T11:58:26.280Z,40.30
2017-11-10T11:59:26.208Z,38.20
2017-11-10T12:00:26.206Z,38.90
2017-11-10T12:01:26.165Z,39.60
2017-11-10T12:02:26.188Z,41.00
2017-11-10T12:03:26.108Z,39.90
2017-11-10T12:04:26.118Z,39.00
2017-11-10T12:05:26.060Z,39.20
2017-11-10T12:06:26.088Z,39.00
2017-11-10T12:07:26.012Z,39.30
2017-11-10T12:08:26.046Z,38.80
2017-11-10T12:09:25.988Z,37.50
2017-11-10T12:10:25.972Z,35.80
2017-11-10T12:11:25.949Z,37.70
2017-11-10T12:12:25.942Z,37.20
2017-11-10T12:13:25.947Z,39.20
2017-11-10T12:14:25.932Z,40.10
2017-11-10T12:15:25.895Z,41.20
2017-11-10T12:16:25.894Z,41.40
2017-11-10T12:17:25.877Z,39.90
2017-11-10T12:18:25.850Z,38.40
2017-11-10T12:19:25.889Z,40.70
2017-11-10T12:20:25.888Z,41.50
2017-11-10T12:21:25.850Z,40.10
2017-11-10T12:22:25.790Z,38.00
2017-11-10T12:23:25.760Z,39.50
2017-11-10T12:24:25.726Z,37.90
2017-11-10T12:25:25.726Z,38.30
2017-11-10T12:26:25.724Z,37.90
2017-11-10T12:27:25.792Z,36.40
2017-11-10T12:28:25.737Z,39.20
2017-11-10T12:29:25.662Z,41.10
2017-11-10T12:30:25.685Z,37.40
2017-11-10T12:31:25.720Z,35.90
2017-11-10T12:32:25.612Z,37.40
2017-11-10T12:33:25.537Z,37.00
2017-11-10T12:34:25.576Z,38.70
2017-11-10T12:35:25.708Z,37.40
2017-11-10T12:36:25.503Z,39.40
2017-11-10T12:37:25.548Z,35.80
2017-11-10T12:38:25.484Z,34.20
2017-11-10T12:39:25.494Z,33.40
2017-11-10T12:40:25.739Z,33.60
2017-11-10T12:41:25.454Z,33.40
2017-11-10T12:42:25.439Z,33.80
2017-11-10T12:43:25.400Z,35.60
2017-11-10T12:44:25.414Z,31.10
2017-11-10T12:45:25.379Z,27.50
2017-11-10T12:46:25.355Z,25.70
2017-11-10T12:47:25.366Z,26.40
2017-11-10T12:48:25.299Z,26.50
2017-11-10T12:49:25.315Z,26.10
2017-11-10T12:50:25.288Z,24.90
2017-11-10T12:51:25.298Z,25.60
2017-11-10T12:52:25.232Z,24.90
2017-11-10T12:53:25.261Z,24.30